APG320 RPVE-RPLL
Flight info
| Callsign | APG320 |
|---|---|
| Flight time | 0h 45m |
| Altitude | 20000 |
| Route | MINOR8A MINOR B473 LAIYA LAIYA1A |
| Aircraft | A20N/M-SDE2E3FGHIRWXY/LB1 |
Departure
| Time | 2026-04-22 17:59 |
|---|---|
| Airport | Godofredo P. Ramos Airport (RPVE) |
Arrival
| Time | 2026-04-22 18:44 |
|---|---|
| Airport | Ninoy Aquino International Airport (RPLL) |
| Time | Latitude | Longitude | Altitude | Speed | Heading |
|---|---|---|---|---|---|
| 2026-04-22 17:34 | 11.92622 | 121.96268 | 27 ft | 0 kts | 149° |
| 2026-04-22 17:45 | 11.92638 | 121.96260 | 28 ft | 4 kts | 168° |
| 2026-04-22 17:45 | 11.92662 | 121.96261 | 30 ft | 4 kts | 217° |
| 2026-04-22 17:45 | 11.92674 | 121.96274 | 29 ft | 1 kts | 243° |
| 2026-04-22 17:45 | 11.92675 | 121.96276 | 29 ft | 0 kts | 243° |
| 2026-04-22 17:50 | 11.92665 | 121.96257 | 29 ft | 4 kts | 243° |
| 2026-04-22 17:50 | 11.92656 | 121.96238 | 30 ft | 2 kts | 243° |
| 2026-04-22 17:50 | 11.92652 | 121.96228 | 29 ft | 1 kts | 248° |
| 2026-04-22 17:51 | 11.92661 | 121.96192 | 30 ft | 11 kts | 315° |
| 2026-04-22 17:51 | 11.92697 | 121.96174 | 31 ft | 4 kts | 337° |
| 2026-04-22 17:51 | 11.92716 | 121.96164 | 27 ft | 2 kts | 330° |
| 2026-04-22 17:51 | 11.92728 | 121.96158 | 32 ft | 1 kts | 330° |
| 2026-04-22 17:52 | 11.92733 | 121.96156 | 32 ft | 0 kts | 336° |
| 2026-04-22 17:52 | 11.92737 | 121.96154 | 29 ft | 4 kts | 336° |
| 2026-04-22 17:52 | 11.92741 | 121.96152 | 26 ft | 0 kts | 335° |
| 2026-04-22 17:55 | 11.92746 | 121.96149 | 26 ft | 6 kts | 335° |
| 2026-04-22 17:55 | 11.92800 | 121.96114 | 29 ft | 9 kts | 300° |
| 2026-04-22 17:55 | 11.92790 | 121.96063 | 27 ft | 6 kts | 244° |
| 2026-04-22 17:55 | 11.92773 | 121.96028 | 27 ft | 5 kts | 244° |
| 2026-04-22 17:56 | 11.92760 | 121.96002 | 27 ft | 4 kts | 242° |
| 2026-04-22 17:56 | 11.92732 | 121.95947 | 26 ft | 15 kts | 243° |
| 2026-04-22 17:56 | 11.92669 | 121.95820 | 26 ft | 25 kts | 243° |
| 2026-04-22 17:56 | 11.92583 | 121.95651 | 29 ft | 28 kts | 243° |
| 2026-04-22 17:57 | 11.92494 | 121.95471 | 24 ft | 29 kts | 243° |
| 2026-04-22 17:57 | 11.92401 | 121.95286 | 24 ft | 30 kts | 243° |
| 2026-04-22 17:57 | 11.92322 | 121.95129 | 27 ft | 17 kts | 243° |
| 2026-04-22 17:57 | 11.92251 | 121.95046 | 26 ft | 11 kts | 225° |
| 2026-04-22 17:58 | 11.92269 | 121.95017 | 27 ft | 5 kts | 44° |
| 2026-04-22 17:58 | 11.92281 | 121.95046 | 27 ft | 4 kts | 66° |
| 2026-04-22 17:58 | 11.92291 | 121.95067 | 26 ft | 3 kts | 66° |
| 2026-04-22 17:58 | 11.92345 | 121.95178 | 25 ft | 50 kts | 62° |
| 2026-04-22 17:59 | 11.92623 | 121.95730 | 27 ft | 121 kts | 63° |
| 2026-04-22 17:59 | 11.93092 | 121.96623 | 306 ft | 152 kts | 62° |
| 2026-04-22 17:59 | 11.93623 | 121.97596 | 821 ft | 161 kts | 60° |
| 2026-04-22 17:59 | 11.94187 | 121.98614 | 1372 ft | 167 kts | 61° |
| 2026-04-22 18:00 | 11.94553 | 121.99328 | 1531 ft | 178 kts | 64° |
| 2026-04-22 18:00 | 11.95351 | 122.00982 | 1731 ft | 209 kts | 64° |
| 2026-04-22 18:00 | 11.96055 | 122.02346 | 2102 ft | 223 kts | 53° |
| 2026-04-22 18:00 | 11.97249 | 122.03397 | 2670 ft | 239 kts | 27° |
| 2026-04-22 18:01 | 11.98875 | 122.04039 | 3091 ft | 259 kts | 24° |
| 2026-04-22 18:01 | 12.00533 | 122.04827 | 3808 ft | 265 kts | 28° |
| 2026-04-22 18:01 | 12.02190 | 122.05708 | 4578 ft | 271 kts | 30° |
| 2026-04-22 18:01 | 12.03868 | 122.06620 | 5340 ft | 275 kts | 29° |
| 2026-04-22 18:02 | 12.05573 | 122.07536 | 6126 ft | 278 kts | 28° |
| 2026-04-22 18:02 | 12.07304 | 122.08447 | 6867 ft | 282 kts | 28° |
| 2026-04-22 18:02 | 12.09065 | 122.09360 | 7592 ft | 285 kts | 27° |
| 2026-04-22 18:02 | 12.10851 | 122.10275 | 8305 ft | 290 kts | 26° |
| 2026-04-22 18:03 | 12.12644 | 122.11186 | 9005 ft | 293 kts | 25° |
| 2026-04-22 18:03 | 12.14486 | 122.12119 | 9723 ft | 297 kts | 25° |
| 2026-04-22 18:03 | 12.16355 | 122.13066 | 10279 ft | 306 kts | 25° |
| 2026-04-22 18:03 | 12.18334 | 122.14066 | 10429 ft | 329 kts | 25° |
| 2026-04-22 18:04 | 12.20461 | 122.15141 | 10551 ft | 352 kts | 25° |
| 2026-04-22 18:04 | 12.22715 | 122.16282 | 10673 ft | 371 kts | 25° |
| 2026-04-22 18:04 | 12.25068 | 122.17475 | 10917 ft | 382 kts | 26° |
| 2026-04-22 18:04 | 12.27456 | 122.18690 | 10976 ft | 383 kts | 26° |
| 2026-04-22 18:05 | 12.29844 | 122.19905 | 10982 ft | 383 kts | 26° |
| 2026-04-22 18:05 | 12.32272 | 122.21024 | 10983 ft | 382 kts | 18° |
| 2026-04-22 18:05 | 12.34862 | 122.21597 | 10982 ft | 381 kts | 4° |
| 2026-04-22 18:05 | 12.37503 | 122.21552 | 10981 ft | 380 kts | 351° |
| 2026-04-22 18:06 | 12.40051 | 122.20879 | 10985 ft | 379 kts | 338° |
| 2026-04-22 18:06 | 12.42373 | 122.19619 | 10984 ft | 378 kts | 326° |
| 2026-04-22 18:06 | 12.44543 | 122.18095 | 10985 ft | 379 kts | 325° |
| 2026-04-22 18:06 | 12.46724 | 122.16576 | 10986 ft | 379 kts | 326° |
| 2026-04-22 18:07 | 12.48905 | 122.15063 | 10986 ft | 379 kts | 326° |
| 2026-04-22 18:07 | 12.51084 | 122.13552 | 10987 ft | 379 kts | 326° |
| 2026-04-22 18:07 | 12.53274 | 122.12037 | 10986 ft | 379 kts | 326° |
| 2026-04-22 18:07 | 12.55454 | 122.10526 | 10985 ft | 379 kts | 326° |
| 2026-04-22 18:08 | 12.57643 | 122.09008 | 10983 ft | 379 kts | 326° |
| 2026-04-22 18:08 | 12.59827 | 122.07494 | 10987 ft | 380 kts | 326° |
| 2026-04-22 18:08 | 12.62016 | 122.05973 | 10987 ft | 380 kts | 326° |
| 2026-04-22 18:08 | 12.64196 | 122.04455 | 10984 ft | 380 kts | 326° |
| 2026-04-22 18:09 | 12.66351 | 122.02953 | 10984 ft | 380 kts | 326° |
| 2026-04-22 18:09 | 12.68536 | 122.01429 | 10985 ft | 380 kts | 326° |
| 2026-04-22 18:09 | 12.70722 | 121.99903 | 10985 ft | 380 kts | 326° |
| 2026-04-22 18:09 | 12.72907 | 121.98377 | 10986 ft | 380 kts | 326° |
| 2026-04-22 18:10 | 12.75093 | 121.96850 | 10986 ft | 380 kts | 327° |
| 2026-04-22 18:10 | 12.77284 | 121.95323 | 10984 ft | 380 kts | 327° |
| 2026-04-22 18:10 | 12.79474 | 121.93800 | 10987 ft | 380 kts | 327° |
| 2026-04-22 18:10 | 12.81664 | 121.92278 | 10986 ft | 380 kts | 327° |
| 2026-04-22 18:11 | 12.83854 | 121.90756 | 10986 ft | 380 kts | 327° |
| 2026-04-22 18:11 | 12.86045 | 121.89231 | 10987 ft | 380 kts | 327° |
| 2026-04-22 18:11 | 12.88233 | 121.87707 | 10984 ft | 380 kts | 327° |
| 2026-04-22 18:11 | 12.90422 | 121.86182 | 10984 ft | 380 kts | 327° |
| 2026-04-22 18:12 | 12.92610 | 121.84658 | 10986 ft | 380 kts | 326° |
| 2026-04-22 18:12 | 12.94800 | 121.83130 | 10991 ft | 380 kts | 327° |
| 2026-04-22 18:12 | 12.96247 | 121.82122 | 10990 ft | 380 kts | 327° |
| 2026-04-22 18:12 | 12.99172 | 121.80079 | 10990 ft | 380 kts | 326° |
| 2026-04-22 18:13 | 13.01366 | 121.78545 | 11263 ft | 384 kts | 326° |
| 2026-04-22 18:13 | 13.03585 | 121.76995 | 11897 ft | 387 kts | 326° |
| 2026-04-22 18:13 | 13.05816 | 121.75434 | 12471 ft | 390 kts | 326° |
| 2026-04-22 18:13 | 13.08072 | 121.73857 | 13027 ft | 394 kts | 326° |
| 2026-04-22 18:14 | 13.10346 | 121.72267 | 13562 ft | 398 kts | 326° |
| 2026-04-22 18:14 | 13.12639 | 121.70661 | 14028 ft | 402 kts | 326° |
| 2026-04-22 18:14 | 13.14962 | 121.69036 | 14482 ft | 405 kts | 326° |
| 2026-04-22 18:14 | 13.17297 | 121.67405 | 14933 ft | 408 kts | 326° |
| 2026-04-22 18:15 | 13.19651 | 121.65760 | 15375 ft | 411 kts | 326° |
| 2026-04-22 18:15 | 13.22020 | 121.64106 | 15801 ft | 414 kts | 326° |
| 2026-04-22 18:15 | 13.24406 | 121.62438 | 16214 ft | 417 kts | 326° |
| 2026-04-22 18:15 | 13.26809 | 121.60754 | 16628 ft | 420 kts | 326° |
| 2026-04-22 18:16 | 13.29196 | 121.59083 | 17029 ft | 422 kts | 326° |
| 2026-04-22 18:16 | 13.31665 | 121.57354 | 17427 ft | 425 kts | 326° |
| 2026-04-22 18:16 | 13.34121 | 121.55636 | 17813 ft | 428 kts | 326° |
| 2026-04-22 18:16 | 13.36557 | 121.53932 | 18187 ft | 431 kts | 326° |
| 2026-04-22 18:17 | 13.39042 | 121.52193 | 18523 ft | 433 kts | 326° |
| 2026-04-22 18:17 | 13.41537 | 121.50442 | 18869 ft | 435 kts | 325° |
| 2026-04-22 18:17 | 13.44038 | 121.48683 | 19224 ft | 436 kts | 325° |
| 2026-04-22 18:17 | 13.46545 | 121.46923 | 19572 ft | 438 kts | 325° |
| 2026-04-22 18:18 | 13.49063 | 121.45155 | 19830 ft | 439 kts | 325° |
| 2026-04-22 18:18 | 13.51585 | 121.43387 | 19897 ft | 438 kts | 325° |
| 2026-04-22 18:18 | 13.54103 | 121.41621 | 19907 ft | 438 kts | 325° |
| 2026-04-22 18:18 | 13.56618 | 121.39855 | 19912 ft | 438 kts | 325° |
| 2026-04-22 18:19 | 13.59135 | 121.38091 | 19909 ft | 437 kts | 325° |
| 2026-04-22 18:19 | 13.61654 | 121.36335 | 19909 ft | 437 kts | 325° |
| 2026-04-22 18:19 | 13.64171 | 121.34585 | 19905 ft | 437 kts | 325° |
| 2026-04-22 18:19 | 13.66694 | 121.32832 | 19909 ft | 437 kts | 325° |
| 2026-04-22 18:20 | 13.69210 | 121.31083 | 19912 ft | 437 kts | 325° |
| 2026-04-22 18:20 | 13.71729 | 121.29329 | 19911 ft | 437 kts | 325° |
| 2026-04-22 18:20 | 13.74247 | 121.27575 | 19916 ft | 437 kts | 325° |
| 2026-04-22 18:20 | 13.76772 | 121.25818 | 19916 ft | 437 kts | 326° |
| 2026-04-22 18:21 | 13.79294 | 121.24067 | 19918 ft | 437 kts | 326° |
| 2026-04-22 18:21 | 13.81811 | 121.22318 | 19914 ft | 437 kts | 326° |
| 2026-04-22 18:21 | 13.84332 | 121.20563 | 19535 ft | 435 kts | 325° |
| 2026-04-22 18:21 | 13.86832 | 121.18815 | 19124 ft | 434 kts | 325° |
| 2026-04-22 18:22 | 13.89336 | 121.17063 | 18360 ft | 436 kts | 326° |
| 2026-04-22 18:22 | 13.91835 | 121.15313 | 17882 ft | 430 kts | 326° |
| 2026-04-22 18:22 | 13.94355 | 121.13716 | 17394 ft | 423 kts | 333° |
| 2026-04-22 18:22 | 13.97045 | 121.12557 | 16860 ft | 417 kts | 342° |
| 2026-04-22 18:23 | 13.99849 | 121.11856 | 16309 ft | 413 kts | 350° |
| 2026-04-22 18:23 | 14.02668 | 121.11334 | 15778 ft | 409 kts | 350° |
| 2026-04-22 18:23 | 14.05420 | 121.10818 | 15272 ft | 405 kts | 350° |
| 2026-04-22 18:24 | 14.10910 | 121.09773 | 14291 ft | 397 kts | 349° |
| 2026-04-22 18:24 | 14.13617 | 121.09253 | 13826 ft | 394 kts | 350° |
| 2026-04-22 18:24 | 14.18956 | 121.08231 | 12757 ft | 387 kts | 350° |
| 2026-04-22 18:25 | 14.21594 | 121.07729 | 12189 ft | 384 kts | 350° |
| 2026-04-22 18:25 | 14.24217 | 121.07231 | 11638 ft | 382 kts | 351° |
| 2026-04-22 18:25 | 14.26756 | 121.06748 | 11105 ft | 379 kts | 351° |
| 2026-04-22 18:26 | 14.31966 | 121.05759 | 10571 ft | 379 kts | 351° |
| 2026-04-22 18:26 | 14.34557 | 121.05265 | 10394 ft | 379 kts | 351° |
| 2026-04-22 18:26 | 14.37143 | 121.04770 | 10213 ft | 378 kts | 351° |
| 2026-04-22 18:26 | 14.39731 | 121.04274 | 10030 ft | 377 kts | 351° |
| 2026-04-22 18:27 | 14.42311 | 121.03782 | 9764 ft | 377 kts | 351° |
| 2026-04-22 18:27 | 14.44886 | 121.03200 | 8941 ft | 381 kts | 341° |
| 2026-04-22 18:27 | 14.47092 | 121.01778 | 8586 ft | 373 kts | 316° |
| 2026-04-22 18:27 | 14.48490 | 120.99575 | 8072 ft | 368 kts | 290° |
| 2026-04-22 18:28 | 14.48827 | 120.96989 | 7513 ft | 365 kts | 264° |
| 2026-04-22 18:28 | 14.48083 | 120.94520 | 6933 ft | 361 kts | 242° |
| 2026-04-22 18:28 | 14.46715 | 120.92356 | 6384 ft | 359 kts | 232° |
| 2026-04-22 18:28 | 14.45163 | 120.90359 | 5785 ft | 356 kts | 230° |
| 2026-04-22 18:29 | 14.43617 | 120.88356 | 4969 ft | 359 kts | 232° |
| 2026-04-22 18:29 | 14.42163 | 120.86264 | 4405 ft | 354 kts | 236° |
| 2026-04-22 18:29 | 14.40849 | 120.84171 | 4288 ft | 345 kts | 237° |
| 2026-04-22 18:29 | 14.39553 | 120.82083 | 4191 ft | 346 kts | 237° |
| 2026-04-22 18:30 | 14.38697 | 120.80700 | 4124 ft | 346 kts | 237° |
| 2026-04-22 18:30 | 14.36133 | 120.76538 | 3922 ft | 334 kts | 237° |
| 2026-04-22 18:30 | 14.34928 | 120.74564 | 3819 ft | 316 kts | 237° |
| 2026-04-22 18:31 | 14.33792 | 120.72699 | 3718 ft | 300 kts | 237° |
| 2026-04-22 18:31 | 14.32711 | 120.70919 | 3617 ft | 285 kts | 237° |
| 2026-04-22 18:31 | 14.31687 | 120.69229 | 3515 ft | 271 kts | 237° |
| 2026-04-22 18:31 | 14.30720 | 120.67623 | 3421 ft | 258 kts | 237° |
| 2026-04-22 18:32 | 14.29798 | 120.66087 | 3321 ft | 245 kts | 237° |
| 2026-04-22 18:32 | 14.28917 | 120.64617 | 3225 ft | 238 kts | 237° |
| 2026-04-22 18:32 | 14.28049 | 120.63171 | 3124 ft | 236 kts | 237° |
| 2026-04-22 18:32 | 14.27186 | 120.61734 | 3032 ft | 236 kts | 237° |
| 2026-04-22 18:33 | 14.26350 | 120.60276 | 2932 ft | 235 kts | 245° |
| 2026-04-22 18:33 | 14.26020 | 120.58667 | 2815 ft | 227 kts | 272° |
| 2026-04-22 18:33 | 14.26398 | 120.57127 | 2691 ft | 220 kts | 298° |
| 2026-04-22 18:33 | 14.27356 | 120.55948 | 2548 ft | 213 kts | 324° |
| 2026-04-22 18:34 | 14.28676 | 120.55313 | 2334 ft | 210 kts | 350° |
| 2026-04-22 18:34 | 14.30113 | 120.55303 | 2096 ft | 207 kts | 15° |
| 2026-04-22 18:34 | 14.31408 | 120.55888 | 1870 ft | 203 kts | 39° |
| 2026-04-22 18:34 | 14.32342 | 120.56948 | 1742 ft | 200 kts | 62° |
| 2026-04-22 18:35 | 14.32836 | 120.58287 | 1697 ft | 200 kts | 75° |
| 2026-04-22 18:35 | 14.33230 | 120.59666 | 1692 ft | 201 kts | 74° |
| 2026-04-22 18:35 | 14.33628 | 120.61047 | 1695 ft | 201 kts | 75° |
| 2026-04-22 18:35 | 14.34025 | 120.62428 | 1696 ft | 200 kts | 75° |
| 2026-04-22 18:36 | 14.34421 | 120.63805 | 1694 ft | 200 kts | 74° |
| 2026-04-22 18:36 | 14.34812 | 120.65165 | 1697 ft | 201 kts | 75° |
| 2026-04-22 18:36 | 14.35209 | 120.66540 | 1692 ft | 200 kts | 75° |
| 2026-04-22 18:36 | 14.35608 | 120.67920 | 1696 ft | 201 kts | 75° |
| 2026-04-22 18:37 | 14.36005 | 120.69299 | 1695 ft | 201 kts | 75° |
| 2026-04-22 18:37 | 14.36400 | 120.70677 | 1699 ft | 200 kts | 74° |
| 2026-04-22 18:37 | 14.36793 | 120.72052 | 1697 ft | 199 kts | 75° |
| 2026-04-22 18:37 | 14.37184 | 120.73423 | 1702 ft | 199 kts | 74° |
| 2026-04-22 18:38 | 14.37577 | 120.74794 | 1701 ft | 200 kts | 74° |
| 2026-04-22 18:38 | 14.37973 | 120.76170 | 1702 ft | 200 kts | 75° |
| 2026-04-22 18:38 | 14.38369 | 120.77547 | 1708 ft | 200 kts | 75° |
| 2026-04-22 18:39 | 14.39158 | 120.80296 | 1707 ft | 199 kts | 74° |
| 2026-04-22 18:39 | 14.39648 | 120.81627 | 1702 ft | 200 kts | 66° |
| 2026-04-22 18:39 | 14.40285 | 120.82906 | 1704 ft | 200 kts | 62° |
| 2026-04-22 18:39 | 14.40959 | 120.84142 | 1721 ft | 191 kts | 62° |
| 2026-04-22 18:40 | 14.41591 | 120.85280 | 1716 ft | 179 kts | 60° |
| 2026-04-22 18:40 | 14.42196 | 120.86368 | 1696 ft | 167 kts | 61° |
| 2026-04-22 18:40 | 14.42750 | 120.87363 | 1697 ft | 155 kts | 61° |
| 2026-04-22 18:40 | 14.43282 | 120.88319 | 1700 ft | 153 kts | 62° |
| 2026-04-22 18:41 | 14.43804 | 120.89257 | 1717 ft | 150 kts | 60° |
| 2026-04-22 18:41 | 14.44321 | 120.90187 | 1718 ft | 149 kts | 62° |
| 2026-04-22 18:41 | 14.44834 | 120.91110 | 1704 ft | 147 kts | 61° |
| 2026-04-22 18:41 | 14.45348 | 120.92033 | 1698 ft | 150 kts | 62° |
| 2026-04-22 18:42 | 14.45870 | 120.92972 | 1550 ft | 149 kts | 62° |
| 2026-04-22 18:42 | 14.46379 | 120.93885 | 1388 ft | 145 kts | 62° |
| 2026-04-22 18:42 | 14.46881 | 120.94788 | 1199 ft | 145 kts | 61° |
| 2026-04-22 18:42 | 14.47381 | 120.95688 | 1020 ft | 145 kts | 62° |
| 2026-04-22 18:43 | 14.47881 | 120.96586 | 832 ft | 144 kts | 61° |
| 2026-04-22 18:43 | 14.48375 | 120.97477 | 664 ft | 143 kts | 60° |
| 2026-04-22 18:43 | 14.48866 | 120.98374 | 437 ft | 141 kts | 61° |
| 2026-04-22 18:43 | 14.49370 | 120.99243 | 246 ft | 139 kts | 59° |
| 2026-04-22 18:44 | 14.49847 | 121.00109 | 116 ft | 140 kts | 61° |
| 2026-04-22 18:44 | 14.50312 | 121.00959 | 65 ft | 122 kts | 60° |
| 2026-04-22 18:44 | 14.50591 | 121.01459 | 63 ft | 37 kts | 60° |
| 2026-04-22 18:44 | 14.50670 | 121.01601 | 63 ft | 26 kts | 60° |
| 2026-04-22 18:45 | 14.50793 | 121.01743 | 68 ft | 22 kts | 38° |
| 2026-04-22 18:45 | 14.50871 | 121.01787 | 66 ft | 0 kts | 359° |
| 2026-04-22 18:49 | 14.50874 | 121.01787 | 65 ft | 4 kts | 358° |
| 2026-04-22 18:49 | 14.50896 | 121.01730 | 64 ft | 0 kts | 250° |
| 2026-04-22 18:51 | 14.50894 | 121.01723 | 61 ft | 6 kts | 250° |
| 2026-04-22 18:51 | 14.50897 | 121.01665 | 63 ft | 8 kts | 297° |
| 2026-04-22 18:51 | 14.50910 | 121.01617 | 64 ft | 6 kts | 265° |
| 2026-04-22 18:51 | 14.50897 | 121.01580 | 61 ft | 5 kts | 244° |
| 2026-04-22 18:52 | 14.50882 | 121.01552 | 66 ft | 4 kts | 241° |
| 2026-04-22 18:52 | 14.50871 | 121.01532 | 64 ft | 3 kts | 240° |
| 2026-04-22 18:52 | 14.50857 | 121.01507 | 60 ft | 8 kts | 240° |
| 2026-04-22 18:52 | 14.50833 | 121.01464 | 61 ft | 6 kts | 240° |
| 2026-04-22 18:53 | 14.50813 | 121.01427 | 66 ft | 5 kts | 245° |
| 2026-04-22 18:53 | 14.50824 | 121.01405 | 68 ft | 3 kts | 328° |
| 2026-04-22 18:53 | 14.50840 | 121.01395 | 62 ft | 2 kts | 329° |
| 2026-04-22 18:53 | 14.50849 | 121.01389 | 65 ft | 1 kts | 328° |
| 2026-04-22 18:54 | 14.50858 | 121.01384 | 68 ft | 3 kts | 328° |
| 2026-04-22 18:54 | 14.50871 | 121.01376 | 62 ft | 2 kts | 330° |
| 2026-04-22 18:54 | 14.50879 | 121.01372 | 65 ft | 1 kts | 330° |
| 2026-04-22 18:54 | 14.50879 | 121.01371 | 65 ft | 0 kts | 330° |